CYYU

Kapuskasing Airport

Kapuskasing, Ontario, Canada
METAR CYYU 121000Z 11004KT 1/4SM FZFG VV002 M18/M20 A3007 RMK FG8 RIME ON INDICATOR SLP204
Observed Flight Rules
Dec-12 @ 10:00 UTC (45 minutes ago) Instrument Flight Rules
Wind Visibility Clouds Conditions
110° at 4 knots 1/4 miles
  • Vertical visibility at 200' AGL
  • Freezing
  • Fog
Temperatures Readings
Current -18°C / -0°F
Dewpoint -20°C / -4°F
Humidity 84%
Altimeter 30.07" Hg
Pressure 1020.4 hPa
Elevation 227
METAR CYYU 121000Z 11004KT 1/4SM FZFG VV002 M18/M20 A3007 RMK FG8 RIME ON INDICATOR SLP204
Observed Flight Rules
Dec-12 @ 10:00 UTC
(45 minutes ago)
LIFR
Wind Visibility
110° at 4 knots 1/4 miles
Clouds
  • Vertical visibility at 200' AGL
Conditions
  • Freezing
  • Fog
Temperature Dewpoint
-18°C / -0°F -20°C / -4°F
Humidity Altimeter Pressure
84% 30.07" Hg 1020.4 hPa